Flight Track Log - Related Links

Times and Time Zones

All times are in EDT time to prevent confusion due to time zone crossing. See the N700QA flight status page for this flight to view local times or setup timezone preferences in your user account.

Time Position Orientation Groundspeed Altitude Reporting Facility
EDT Latitude Longitude Course Direction KTS MPH feet Rate Location/Type
Mon 05:08:53 PM 33.9000 -118.4833 96° East 207 238 3,700  Level Southern California TRACON
Mon 05:09:25 PM 33.8856 -118.5144 241° Southwest 217 250 4,800 1,750 Climbing Los Angeles Center
Mon 05:10:29 PM 33.8400 -118.5792 230° Southwest 255 293 6,500 1,742 Climbing Los Angeles Center
Mon 05:11:29 PM 33.7650 -118.5814 181° South 278 320 8,400 1,820 Climbing Los Angeles Center
Mon 05:12:31 PM 33.7019 -118.5294 146° Southeast 290 334 10,200 1,790 Climbing Los Angeles Center
Mon 05:13:33 PM 33.6778 -118.4369 107° East 294 338 12,100 1,887 Climbing Los Angeles Center
Mon 05:14:00 PM 33.7353 -117.6219 96° East  Level FlightAware Approximate
Mon 05:14:35 PM 33.6758 -118.3183 91° East 308 354 14,100  Level Los Angeles Center
Mon 05:15:38 PM 33.6786 -118.2172 88° East 311 358 15,500 1,296 Climbing Los Angeles Center
Mon 05:16:40 PM 33.6747 -118.1133 93° East 313 360 16,800 1,258 Climbing Los Angeles Center
Mon 05:17:42 PM 33.6742 -118.0056 90° East 322 371 18,100 1,065 Climbing Los Angeles Center
Mon 05:18:44 PM 33.6728 -117.8817 91° East 328 377 19,000 871 Climbing Los Angeles Center
Mon 05:19:46 PM 33.6711 -117.7542 91° East 356 410 19,900 1,065 Climbing Los Angeles Center
Mon 05:20:48 PM 33.6664 -117.6372 93° East 351 404 21,200 1,016 Climbing Los Angeles Center
Mon 05:21:50 PM 33.6322 -117.5292 111° Southeast 346 398 22,000 823 Climbing Los Angeles Center
Mon 05:22:52 PM 33.5908 -117.4233 115° Southeast 350 403 22,900 484 Climbing Los Angeles Center
Mon 05:23:54 PM 33.5367 -117.2917 116° Southeast 366 421 23,000 629 Climbing Los Angeles Center
Mon 05:24:56 PM 33.4864 -117.1828 119° Southeast 373 429 24,200 1,016 Climbing Los Angeles Center
Mon 05:25:58 PM 33.4453 -117.0808 116° Southeast 364 419 25,100 768 Climbing Los Angeles Center
Mon 05:27:01 PM 33.4003 -116.9756 117° Southeast 358 412 25,800 816 Climbing Los Angeles Center
Mon 05:28:03 PM 33.3514 -116.8739 120° Southeast 352 405 26,800 823 Climbing Los Angeles Center
Mon 05:29:05 PM 33.2772 -116.7633 129° Southeast 356 410 27,500 581 Climbing Los Angeles Center
Mon 05:30:07 PM 33.2303 -116.6494 116° Southeast 374 430 28,000 484 Climbing Los Angeles Center
Mon 05:31:09 PM 33.2406 -116.5308 84° East 369 425 28,500 484 Climbing Los Angeles Center
Mon 05:32:11 PM 33.2961 -116.4236 58° Northeast 383 441 29,000 484 Climbing Los Angeles Center
Mon 05:33:13 PM 33.3561 -116.3189 56° Northeast 384 442 29,500 435 Climbing Los Angeles Center
Mon 05:34:15 PM 33.4136 -116.2078 58° Northeast 387 445 29,900 484 Climbing Los Angeles Center
Mon 05:35:17 PM 33.5103 -116.0942 44° Northeast 405 466 30,500 629 Climbing Los Angeles Center
Mon 05:36:19 PM 33.5861 -115.9992 46° Northeast 397 457 31,200 532 Climbing Los Angeles Center
Mon 05:37:21 PM 33.6606 -115.9025 47° Northeast 395 455 31,600 432 Climbing Los Angeles Center
Mon 05:38:24 PM 33.7372 -115.8078 46° Northeast 396 456 32,100 432 Climbing Los Angeles Center
Mon 05:39:26 PM 33.8136 -115.7106 47° Northeast 399 459 32,500 435 Climbing Los Angeles Center
Mon 05:40:28 PM 33.8889 -115.6128 47° Northeast 400 460 33,000 242 Climbing Los Angeles Center
Mon 05:41:30 PM 33.9819 -115.4944 47° Northeast 403 464 33,000 48 Level Los Angeles Center
Mon 05:42:32 PM 34.0606 -115.3931 47° Northeast 412 474 33,100 48 Climbing Los Angeles Center
Mon 05:43:34 PM 34.1411 -115.2914 46° Northeast 417 480 33,100  Level Los Angeles Center
Mon 05:44:36 PM 34.2225 -115.1872 47° Northeast 425 489 33,100 290 Level Los Angeles Center
Mon 05:45:38 PM 34.3017 -115.0850 47° Northeast 419 482 33,700 532 Climbing Los Angeles Center
Mon 05:46:40 PM 34.3797 -114.9817 48° Northeast 417 480 34,200 484 Climbing Los Angeles Center
Mon 05:47:42 PM 34.4719 -114.8633 47° Northeast 406 467 34,700 387 Climbing Los Angeles Center
Mon 05:48:44 PM 34.5481 -114.7636 47° Northeast 404 465 35,000 145 Climbing Los Angeles Center
Mon 05:49:46 PM 34.6242 -114.6631 47° Northeast 404 465 35,000  Level Los Angeles Center
Mon 05:50:48 PM 34.7131 -114.5456 47° Northeast 420 483 35,000 48 Level Los Angeles Center
Mon 05:51:51 PM 34.7922 -114.4408 47° Northeast 422 486 35,100 48 Climbing Los Angeles Center
Mon 05:52:53 PM 34.8647 -114.3308 51° Northeast 418 481 35,100  Level Los Angeles Center
Mon 05:53:55 PM 34.9392 -114.2194 51° Northeast 424 488 35,100  Level Los Angeles Center
Mon 05:54:57 PM 35.0150 -114.1100 50° Northeast 425 489 35,100  Level Los Angeles Center
Mon 05:55:59 PM 35.0892 -113.9981 51° Northeast 425 489 35,100  Level Los Angeles Center
Mon 05:57:01 PM 35.1678 -113.8828 50° Northeast 431 496 35,100  Level Los Angeles Center
Mon 05:58:03 PM 35.2597 -113.7475 50° Northeast 434 499 35,100  Level Los Angeles Center
Mon 05:59:05 PM 35.3336 -113.6342 51° Northeast 430 495 35,100  Level Los Angeles Center
Mon 06:00:07 PM 35.4081 -113.5231 51° Northeast 425 489 35,100  Level Los Angeles Center
Mon 06:01:09 PM 35.4814 -113.4111 51° Northeast 421 484 35,100  Level Los Angeles Center
Mon 06:02:11 PM 35.5547 -113.3011 51° Northeast 418 481 35,100  Level Los Angeles Center
Mon 06:03:13 PM 35.6394 -113.1714 51° Northeast 413 475 35,100 -48 Level Los Angeles Center
Mon 06:04:15 PM 35.6989 -113.0808 51° Northeast 412 474 35,000 -48 Descending Los Angeles Center
Mon 06:05:17 PM 35.7850 -112.9494 51° Northeast 410 472 35,000  Level Los Angeles Center
Mon 06:06:19 PM 35.8556 -112.8403 51° Northeast 409 471 35,000  Level Los Angeles Center
Mon 06:07:21 PM 35.9269 -112.7311 51° Northeast 409 471 35,000 48 Level Los Angeles Center
Mon 06:08:23 PM 35.9961 -112.6264 51° Northeast 407 468 35,100 48 Climbing Los Angeles Center
Mon 06:09:25 PM 36.0800 -112.4944 52° Northeast 407 468 35,100 -48 Level Los Angeles Center
Mon 06:10:27 PM 36.1511 -112.3844 51° Northeast 409 471 35,000 -48 Descending Los Angeles Center
Mon 06:11:29 PM 36.2219 -112.2744 51° Northeast 409 471 35,000 48 Level Los Angeles Center
Mon 06:12:31 PM 36.2917 -112.1642 52° Northeast 409 471 35,100 48 Climbing Los Angeles Center
Mon 06:13:33 PM 36.3628 -112.0519 52° Northeast 412 474 35,100  Level Los Angeles Center
Mon 06:14:35 PM 36.4328 -111.9414 52° Northeast 411 473 35,100  Level Los Angeles Center
Mon 06:15:18 PM 36.4906 -111.8511 51° Northeast 413 475 35,100  Level Denver Center
Mon 06:16:20 PM 36.5625 -111.7375 52° Northeast 417 480 35,100  Level Denver Center
Mon 06:17:22 PM 36.6339 -111.6239 52° Northeast 417 480 35,100  Level Denver Center
Mon 06:18:24 PM 36.7189 -111.4867 52° Northeast 418 481 35,100  Level Denver Center
Mon 06:19:26 PM 36.7900 -111.3722 52° Northeast 419 482 35,100  Level Denver Center
Mon 06:20:40 PM 36.8761 -111.2358 52° Northeast 419 482 35,100  Level Denver Center
Mon 06:21:42 PM 36.9461 -111.1217 52° Northeast 417 480 35,100  Level Denver Center
Mon 06:22:44 PM 37.0164 -111.0061 53° Northeast 419 482 35,100  Level Denver Center
Mon 06:23:46 PM 37.1031 -110.8686 52° Northeast 421 484 35,100  Level Denver Center
Mon 06:24:48 PM 37.1781 -110.7575 50° Northeast 419 482 35,100  Level Denver Center
Mon 06:25:50 PM 37.2725 -110.6700 36° Northeast 422 486 35,100  Level Denver Center
Mon 06:26:52 PM 37.3656 -110.5794 38° Northeast 424 488 35,100  Level Denver Center
Mon 06:27:54 PM 37.4506 -110.4767 44° Northeast 424 488 35,100  Level Denver Center
Mon 06:28:55 PM 37.5456 -110.3578 45° Northeast 428 493 35,100  Level Denver Center
Mon 06:29:57 PM 37.6306 -110.2633 41° Northeast 426 490 35,100  Level Denver Center
Mon 06:30:59 PM 37.7317 -110.1536 41° Northeast 430 495 35,100  Level Denver Center
Mon 06:32:01 PM 37.8022 -110.0406 52° Northeast 427 491 35,100  Level Denver Center
Mon 06:33:03 PM 37.8783 -109.9014 55° Northeast 429 494 35,100  Level Denver Center
Mon 06:34:05 PM 37.9472 -109.7867 53° Northeast 428 493 35,100  Level Denver Center
Mon 06:35:07 PM 38.0150 -109.6681 54° Northeast 433 498 35,100  Level Denver Center
Mon 06:36:09 PM 38.0878 -109.5406 54° Northeast 433 498 35,100  Level Denver Center
Mon 06:37:11 PM 38.1667 -109.4025 54° Northeast 434 499 35,100  Level Denver Center
Mon 06:38:12 PM 38.2353 -109.2844 53° Northeast 435 501 35,100  Level Denver Center
Mon 06:39:14 PM 38.3133 -109.1442 55° Northeast 437 503 35,100  Level Denver Center
Mon 06:40:16 PM 38.3811 -109.0214 55° Northeast 440 506 35,100  Level Denver Center
Mon 06:41:18 PM 38.4603 -108.8825 54° Northeast 436 502 35,100  Level Denver Center
Mon 06:42:20 PM 38.5286 -108.7622 54° Northeast 437 503 35,100  Level Denver Center
Mon 06:43:22 PM 38.6078 -108.6211 54° Northeast 439 505 35,100  Level Denver Center
Mon 06:44:24 PM 38.6753 -108.5003 54° Northeast 437 503 35,100  Level Denver Center
Mon 06:45:26 PM 38.7542 -108.3567 55° Northeast 441 507 35,100  Level Denver Center
Mon 06:46:28 PM 38.8217 -108.2336 55° Northeast 442 509 35,100  Level Denver Center
Mon 06:47:29 PM 38.9008 -108.0906 55° Northeast 442 509 35,100  Level Denver Center
Mon 06:48:31 PM 38.9686 -107.9678 55° Northeast 440 506 35,100  Level Denver Center
Mon 06:49:33 PM 39.0478 -107.8239 55° Northeast 442 509 35,100  Level Denver Center
Mon 06:50:35 PM 39.1156 -107.6997 55° Northeast 443 510 35,100  Level Denver Center
Mon 06:51:37 PM 39.1814 -107.5769 55° Northeast 439 505 35,100  Level Denver Center
Mon 06:52:39 PM 39.2592 -107.4317 55° Northeast 441 507 35,100  Level Denver Center
Mon 06:53:40 PM 39.3275 -107.3061 55° Northeast 444 511 35,100  Level Denver Center
Mon 06:54:42 PM 39.4044 -107.1606 56° Northeast 441 507 35,100  Level Denver Center
Mon 06:55:44 PM 39.4708 -107.0350 56° Northeast 442 509 35,100  Level Denver Center
Mon 06:56:46 PM 39.5475 -106.8872 56° Northeast 448 516 35,100  Level Denver Center
Mon 06:57:48 PM 39.6144 -106.7642 55° Northeast 446 513 35,100  Level Denver Center
Mon 06:58:49 PM 39.6864 -106.6264 56° Northeast 447 514 35,100  Level Denver Center
Mon 06:59:51 PM 39.7611 -106.4836 56° Northeast 444 511 35,100  Level Denver Center
Mon 07:00:53 PM 39.8306 -106.3506 56° Northeast 445 512 35,100  Level Denver Center
Mon 07:01:55 PM 39.9014 -106.2172 55° Northeast 446 513 35,100  Level Denver Center
Mon 07:02:57 PM 39.9694 -106.0833 56° Northeast 444 511 35,100  Level Denver Center
Mon 07:03:58 PM 40.0381 -105.9494 56° Northeast 444 511 35,100  Level Denver Center
Mon 07:05:00 PM 40.1069 -105.8147 56° Northeast 444 511 35,100  Level Denver Center
Mon 07:06:02 PM 40.1908 -105.6486 56° Northeast 453 521 35,100  Level Denver Center
Mon 07:07:04 PM 40.2583 -105.5147 57° Northeast 443 510 35,100 48 Level Denver Center
Mon 07:08:06 PM 40.3272 -105.3772 57° Northeast 449 517 35,200  Climbing Denver Center
Mon 07:09:08 PM 40.3964 -105.2397 57° Northeast 450 518 35,100 -49 Descending Denver Center
Mon 07:10:09 PM 40.4658 -105.1014 57° Northeast 452 520 35,100  Level Denver Center
Mon 07:11:11 PM 40.5339 -104.9628 57° Northeast 451 519 35,100  Level Denver Center
Mon 07:12:13 PM 40.6033 -104.8242 57° Northeast 451 519 35,100  Level Denver Center
Mon 07:13:15 PM 40.6850 -104.6583 57° Northeast 450 518 35,100  Level Denver Center
Mon 07:14:17 PM 40.7522 -104.5206 57° Northeast 447 514 35,100 48 Level Denver Center
Mon 07:15:19 PM 40.8197 -104.3822 57° Northeast 448 516 35,200  Climbing Denver Center
Mon 07:16:21 PM 40.8883 -104.2431 57° Northeast 452 520 35,100 -48 Descending Denver Center
Mon 07:17:23 PM 40.9553 -104.1058 57° Northeast 447 514 35,100  Level Denver Center
Mon 07:18:25 PM 41.0222 -103.9656 58° Northeast 447 514 35,100  Level Denver Center
Mon 07:19:27 PM 41.0972 -103.8119 57° Northeast 448 516 35,100  Level Denver Center
Mon 07:20:29 PM 41.1603 -103.6794 58° Northeast 446 513 35,100  Level Denver Center
Mon 07:21:31 PM 41.2339 -103.5231 58° Northeast 446 513 35,100  Level Denver Center
Mon 07:22:33 PM 41.2972 -103.3886 58° Northeast 448 516 35,100  Level Denver Center
Mon 07:23:35 PM 41.3708 -103.2336 58° Northeast 447 514 35,100  Level Denver Center
Mon 07:24:37 PM 41.4333 -103.0997 58° Northeast 446 513 35,100  Level Denver Center
Mon 07:25:39 PM 41.5069 -102.9425 58° Northeast 448 516 35,100  Level Denver Center
Mon 07:26:40 PM 41.5689 -102.8081 58° Northeast 446 513 35,100  Level Denver Center
Mon 07:27:42 PM 41.6403 -102.6514 59° Northeast 443 510 35,100 -48 Level Denver Center
Mon 07:28:45 PM 41.7061 -102.5089 58° Northeast 444 511 35,000 -48 Descending Denver Center
Mon 07:29:46 PM 41.7744 -102.3597 58° Northeast 444 511 35,000  Level Denver Center
Mon 07:30:48 PM 41.8400 -102.2147 59° Northeast 446 513 35,000  Level Denver Center
Mon 07:31:50 PM 41.9019 -102.0786 59° Northeast 446 513 35,000  Level Denver Center
Mon 07:32:52 PM 41.9736 -101.9203 59° Northeast 444 511 35,000 48 Level Denver Center
Mon 07:33:54 PM 42.0347 -101.7833 59° Northeast 447 514 35,100  Climbing Denver Center
Mon 07:34:56 PM 42.1058 -101.6247 59° Northeast 442 509 35,000 -48 Descending Denver Center
Mon 07:35:58 PM 42.1669 -101.4892 59° Northeast 441 507 35,000  Level Denver Center
Mon 07:37:00 PM 42.2283 -101.3511 59° Northeast 446 513 35,000  Level Denver Center
Mon 07:38:02 PM 42.2981 -101.1903 60° Northeast 444 511 35,000  Level Denver Center
Mon 07:39:04 PM 42.3586 -101.0525 59° Northeast 445 512 35,000  Level Denver Center
Mon 07:40:06 PM 42.4286 -100.8911 60° Northeast 445 512 35,000  Level Denver Center
Mon 07:41:08 PM 42.4878 -100.7539 60° Northeast 442 509 35,000  Level Denver Center
Mon 07:42:04 PM 42.5442 -100.6228 60° Northeast 444 511 35,000  Level Minneapolis Center
Mon 07:43:06 PM 42.6069 -100.4789 59° Northeast 444 511 35,000  Level Minneapolis Center
Mon 07:44:08 PM 42.6825 -100.3039 60° Northeast 446 513 35,000  Level Minneapolis Center
Mon 07:45:16 PM 42.7494 -100.1439 60° Northeast 444 511 35,000  Level Denver Center
Mon 07:46:24 PM 42.8169 -99.9839 60° Northeast 441 507 35,000 42 Level Minneapolis Center
Mon 07:47:38 PM 42.8717 -99.8533 60° Northeast 442 509 35,100  Climbing Minneapolis Center
Mon 07:48:40 PM 42.9517 -99.6619 60° Northeast 444 511 35,000 -48 Descending Minneapolis Center
Mon 07:49:42 PM 43.0133 -99.5119 61° Northeast 449 517 35,000  Level Minneapolis Center
Mon 07:50:43 PM 43.0750 -99.3664 60° Northeast 445 512 35,000  Level Minneapolis Center
Mon 07:51:45 PM 43.1403 -99.2069 61° Northeast 445 512 35,000 48 Level Minneapolis Center
Mon 07:52:47 PM 43.2006 -99.0581 61° Northeast 447 514 35,100  Climbing Minneapolis Center
Mon 07:53:49 PM 43.2700 -98.8903 60° Northeast 446 513 35,000 -48 Descending Minneapolis Center
Mon 07:54:51 PM 43.3300 -98.7394 61° Northeast 450 518 35,000 49 Level Minneapolis Center
Mon 07:55:52 PM 43.3919 -98.5900 60° Northeast 451 519 35,100  Climbing Minneapolis Center
Mon 07:56:54 PM 43.4517 -98.4392 61° Northeast 451 519 35,000  Descending Minneapolis Center
Mon 07:57:56 PM 43.4997 -98.3181 61° Northeast 451 519 35,100  Climbing Minneapolis Center
Mon 07:58:58 PM 43.5717 -98.1367 61° Northeast 451 519 35,000 -48 Descending Minneapolis Center
Mon 08:00:00 PM 43.6431 -97.9550 61° Northeast 451 519 35,000 49 Level Minneapolis Center
Mon 08:01:01 PM 43.7028 -97.8017 62° Northeast 454 522 35,100 49 Climbing Minneapolis Center
Mon 08:02:03 PM 43.7614 -97.6511 62° Northeast 448 516 35,100  Level Minneapolis Center
Mon 08:03:17 PM 43.8197 -97.4981 62° Northeast 450 518 35,100  Level Minneapolis Center
Mon 08:04:19 PM 43.8908 -97.3133 62° Northeast 454 522 35,100 -48 Level Minneapolis Center
Mon 08:05:21 PM 43.9503 -97.1597 62° Northeast 454 522 35,000 -48 Descending Minneapolis Center
Mon 08:06:23 PM 44.0014 -96.9989 66° East 455 524 35,000  Level Minneapolis Center
Mon 08:07:25 PM 44.0636 -96.8050 66° East 459 528 35,000 49 Level Minneapolis Center
Mon 08:08:26 PM 44.1142 -96.6442 66° East 456 525 35,100  Climbing Minneapolis Center
Mon 08:09:28 PM 44.1644 -96.4800 67° East 460 529 35,000 -629 Descending Minneapolis Center
Mon 08:10:30 PM 44.2147 -96.3197 66° East 460 529 33,800 -1,500 Descending Minneapolis Center
Mon 08:11:32 PM 44.2706 -96.1375 67° East 466 536 31,900 -1,676 Descending Minneapolis Center
Mon 08:12:46 PM 44.3206 -95.9728 67° East 461 531 30,000 -1,853 Descending Minneapolis Center
Mon 08:13:48 PM 44.3789 -95.7806 67° East 452 520 27,700 -2,129 Descending Minneapolis Center
Mon 08:14:50 PM 44.4267 -95.6214 67° East 446 513 25,600 -2,049 Descending Minneapolis Center
Mon 08:15:51 PM 44.4728 -95.4644 68° East 440 506 23,500 -2,341 Descending Minneapolis Center
Mon 08:16:53 PM 44.5267 -95.2819 67° East 427 491 20,800 -2,323 Descending Minneapolis Center
Mon 08:17:55 PM 44.5700 -95.1358 67° East 413 475 18,700 -2,129 Descending Minneapolis Center
Mon 08:18:57 PM 44.6117 -94.9914 68° East 403 464 16,400 -1,984 Descending Minneapolis Center
Mon 08:19:59 PM 44.6528 -94.8556 67° East 388 447 14,600 -1,742 Descending Minneapolis Center
Mon 08:21:01 PM 44.6889 -94.7278 68° East 361 415 12,800 -1,984 Descending Minneapolis Center
Mon 08:22:03 PM 44.7292 -94.5906 68° East 349 402 10,500 -1,645 Descending Minneapolis Center
Mon 08:23:05 PM 44.7611 -94.4797 68° East 301 346 9,400 -1,016 Descending Minneapolis Center
Mon 08:24:07 PM 44.7917 -94.3719 68° East 299 344 8,400 -574 Descending Minneapolis Center
Mon 08:25:21 PM 44.8247 -94.2578 68° East 315 362 8,100 -132 Descending Minneapolis Center
Mon 08:26:23 PM 44.8622 -94.1233 68° East 306 352 8,100 -387 Level Minneapolis Center
Mon 08:27:25 PM 44.8497 -93.9786 97° East 328 377 7,300 -726 Descending Minneapolis Center
Mon 08:28:27 PM 44.8167 -93.8661 112° Southeast 312 359 6,600 -774 Descending Minneapolis Center
Mon 08:29:29 PM 44.7864 -93.7575 111° Southeast 300 345 5,700 -823 Descending Minneapolis Center
Mon 08:30:31 PM 44.7589 -93.6522 110° East 290 334 4,900 -677 Descending Minneapolis Center
Mon 08:31:33 PM 44.7311 -93.5489 111° Southeast 284 327 4,300 -435 Descending Minneapolis Center
Mon 08:32:35 PM 44.7036 -93.4469 111° Southeast 281 323 4,000 -532 Descending Minneapolis Center
Mon 08:33:37 PM 44.7039 -93.3258 90° East 258 297 3,200 -532 Descending Minneapolis Center
Mon 08:34:39 PM 44.7464 -93.2589 48° Northeast 227 261 2,900 -48 Descending Minneapolis Center
Mon 08:35:41 PM 44.7875 -93.1928 49° Northeast 211 243 3,100 -194 Climbing Minneapolis Center
Mon 08:36:43 PM 44.8211 -93.1364 50° Northeast 188 216 2,500 -242 Descending Minneapolis Center
Mon 08:37:45 PM 44.8644 -93.1233 12° North 165 190 2,600 -145 Climbing Minneapolis Center
Mon 08:38:47 PM 44.8897 -93.0647 59° Northeast 184 212 2,200 -726 Descending Minneapolis Center
Mon 08:39:49 PM 44.9136 -93.0406 36° Northeast 147 169 1,100 -629 Descending Minneapolis Center
Mon 08:40:51 PM 44.9369 -93.0692 319° Northwest 139 160 900 -194 Descending Minneapolis Center

Login

Don't have an account? Register now (free) for customized features, flight alerts, and more!